Time;durP1;ratioP1;P1;durP2;ratioP2;P2;SDS_P1;SDS_P2;PMS_P1;PMS_P2;Temp;Humidity;BMP_temperature;BMP_pressure;BME280_temperature;BME280_humidity;BME280_pressure;Samples;Min_cycle;Max_cycle;Signal;HPM_P1;HPM_P2
2022/07/03 00:02:09;;;;;;;10.27;7.10;;;;;;;23.81;62.41;97458.47;5085024;28;20604;-71
2022/07/03 00:04:36;;;;;;;7.43;6.60;;;;;;;23.51;63.28;97466.59;5086520;28;20617;-72
2022/07/03 00:07:04;;;;;;;8.23;7.13;;;;;;;23.56;63.01;97461.69;5086506;28;20276;-71
2022/07/03 00:09:31;;;;;;;7.67;6.80;;;;;;;23.57;62.96;97452.81;5068607;28;20242;-71
2022/07/03 00:11:58;;;;;;;8.23;7.43;;;;;;;23.24;63.05;97448.75;5086759;28;20186;-71
2022/07/03 00:14:25;;;;;;;9.23;6.77;;;;;;;22.92;64.64;97457.84;5086388;28;20187;-71
2022/07/03 00:16:52;;;;;;;8.43;6.93;;;;;;;22.64;65.50;97449.75;5087207;28;20192;-70
2022/07/03 00:19:19;;;;;;;8.57;6.80;;;;;;;22.57;65.74;97451.19;5086477;28;20185;-71
2022/07/03 00:21:56;;;;;;;11.37;7.00;;;;;;;22.45;66.38;97447.00;5070141;28;20267;-71
2022/07/03 00:24:25;;;;;;;8.50;7.07;;;;;;;22.38;66.40;97451.13;5090721;28;20249;-70
2022/07/03 00:26:53;;;;;;;8.07;7.23;;;;;;;22.22;66.68;97461.31;5090372;28;20268;-71
2022/07/03 00:29:22;;;;;;;8.13;7.30;;;;;;;22.04;67.49;97447.06;5090695;28;20201;-70
2022/07/03 00:31:50;;;;;;;9.93;7.30;;;;;;;22.19;67.72;97455.50;5090694;28;20580;-70
2022/07/03 00:34:17;;;;;;;8.07;7.27;;;;;;;22.49;66.66;97458.13;5090392;28;20192;-70
2022/07/03 00:36:47;;;;;;;8.67;7.00;;;;;;;22.67;66.18;97447.81;5068652;28;20216;-70
2022/07/03 00:39:15;;;;;;;9.57;7.83;;;;;;;22.59;66.13;97446.66;5070265;28;20571;-71
2022/07/03 00:41:45;;;;;;;7.97;7.17;;;;;;;22.00;67.94;97452.75;5070102;28;20289;-72
2022/07/03 00:44:13;;;;;;;8.43;7.60;;;;;;;21.86;69.00;97451.28;5068463;28;20188;-71
2022/07/03 00:46:41;;;;;;;9.50;7.70;;;;;;;21.53;69.89;97436.47;5070206;28;20246;-71
2022/07/03 00:49:10;;;;;;;8.77;7.90;;;;;;;21.62;69.83;97440.94;5069551;28;20191;-71
2022/07/03 00:51:42;;;;;;;8.30;7.50;;;;;;;21.51;70.48;97427.84;5069852;28;20195;-71
2022/07/03 00:54:16;;;;;;;11.67;8.80;;;;;;;21.52;70.43;97431.28;5069979;28;20191;-71
2022/07/03 00:56:50;;;;;;;9.27;8.40;;;;;;;21.39;70.94;97428.84;5069565;28;20272;-71
2022/07/03 00:59:18;;;;;;;9.90;8.57;;;;;;;21.34;71.08;97424.91;5069731;28;20201;-71
2022/07/03 01:01:47;;;;;;;12.00;8.50;;;;;;;21.39;70.72;97435.94;5069346;28;20218;-71
2022/07/03 01:04:33;;;;;;;9.43;8.43;;;;;;;21.40;70.80;97427.03;5069848;28;20186;-70
2022/07/03 01:07:06;;;;;;;8.47;7.67;;;;;;;21.44;70.87;97423.19;5069378;28;20289;-70
2022/07/03 01:09:53;;;;;;;9.63;8.17;;;;;;;21.45;70.82;97424.88;5069460;28;20217;-69
2022/07/03 01:12:38;;;;;;;11.97;8.30;;;;;;;21.69;70.10;97425.47;5069370;28;20192;-69
2022/07/03 01:15:14;;;;;;;11.80;8.77;;;;;;;21.69;69.87;97417.53;5069469;28;20218;-70
2022/07/03 01:17:53;;;;;;;9.17;8.27;;;;;;;21.71;69.89;97420.88;5069259;28;20277;-69
2022/07/03 01:20:26;;;;;;;11.17;8.83;;;;;;;21.68;69.86;97415.84;5069001;28;20191;-69
2022/07/03 01:22:59;;;;;;;9.03;8.13;;;;;;;21.54;70.36;97418.81;5069104;28;20219;-69
2022/07/03 01:25:47;;;;;;;10.40;8.50;;;;;;;21.40;71.07;97412.06;5069488;28;20243;-70
2022/07/03 01:28:20;;;;;;;11.07;8.20;;;;;;;21.34;71.34;97419.66;5068880;28;20193;-69
2022/07/03 01:30:50;;;;;;;9.70;8.77;;;;;;;21.44;71.13;97412.66;5068881;28;20677;-69
2022/07/03 01:33:18;;;;;;;10.83;9.20;;;;;;;21.36;71.50;97425.63;5066887;28;20662;-69
2022/07/03 01:36:06;;;;;;;9.70;8.70;;;;;;;21.57;70.62;97411.53;5071945;28;20656;-69
2022/07/03 01:38:35;;;;;;;10.33;7.70;;;;;;;21.69;70.34;97417.53;5089505;28;20618;-70
2022/07/03 01:41:05;;;;;;;11.57;8.50;;;;;;;21.70;70.28;97425.31;5088531;28;20219;-70
2022/07/03 01:43:36;;;;;;;9.03;8.13;;;;;;;21.84;69.36;97406.56;5089195;28;20185;-70
2022/07/03 01:46:04;;;;;;;10.23;8.13;;;;;;;21.73;69.43;97416.31;5089061;28;20190;-70
2022/07/03 01:48:33;;;;;;;9.73;7.70;;;;;;;21.87;68.95;97413.38;5088849;28;20190;-70
2022/07/03 01:51:00;;;;;;;9.60;8.47;;;;;;;21.99;68.82;97420.25;5088915;28;20190;-70
2022/07/03 01:53:30;;;;;;;9.10;7.73;;;;;;;21.99;68.86;97409.69;5088584;28;20242;-70
2022/07/03 01:55:59;;;;;;;8.93;7.80;;;;;;;22.20;67.98;97407.00;5088903;28;20273;-71
2022/07/03 01:58:27;;;;;;;8.27;7.43;;;;;;;22.30;67.73;97402.59;5088591;28;20196;-71
2022/07/03 02:01:20;;;;;;;8.83;7.63;;;;;;;22.32;67.75;97396.22;5088391;28;20186;-70
2022/07/03 02:04:09;;;;;;;9.33;8.33;;;;;;;22.34;67.68;97412.75;5088678;28;20563;-70
2022/07/03 02:06:57;;;;;;;9.97;9.03;;;;;;;22.35;67.37;97408.31;5088360;28;20578;-71
2022/07/03 02:09:34;;;;;;;12.77;9.10;;;;;;;22.16;68.01;97406.44;5088797;28;20215;-70
2022/07/03 02:12:03;;;;;;;10.43;9.37;;;;;;;21.95;68.40;97410.09;5088432;28;20274;-71
2022/07/03 02:14:36;;;;;;;10.87;9.63;;;;;;;21.81;68.85;97405.97;5088189;28;20188;-70
2022/07/03 02:17:15;;;;;;;13.57;10.00;;;;;;;21.70;69.44;97406.06;5070221;28;20236;-70
2022/07/03 02:19:59;;;;;;;13.10;9.43;;;;;;;21.60;69.84;97413.03;5088226;28;20738;-71
2022/07/03 02:22:35;;;;;;;10.93;9.73;;;;;;;21.74;69.25;97400.38;5088188;28;20262;-70
2022/07/03 02:25:22;;;;;;;11.10;9.47;;;;;;;21.79;69.21;97399.97;5088193;28;20631;-71
2022/07/03 02:28:11;;;;;;;9.93;8.80;;;;;;;21.93;68.51;97402.31;5088041;28;20182;-71
2022/07/03 02:30:42;;;;;;;11.67;9.17;;;;;;;21.86;68.71;97398.53;5088300;28;20191;-71
2022/07/03 02:33:11;;;;;;;10.17;8.93;;;;;;;21.97;68.61;97398.44;5088092;28;20603;-70
2022/07/03 02:35:40;;;;;;;10.10;9.03;;;;;;;22.18;68.05;97396.59;5087806;28;20198;-71
2022/07/03 02:38:12;;;;;;;9.30;8.47;;;;;;;22.08;68.02;97408.91;5088041;28;20195;-71
2022/07/03 02:40:57;;;;;;;11.00;9.20;;;;;;;21.94;68.10;97404.00;5088010;28;20192;-71
2022/07/03 02:43:41;;;;;;;9.87;8.90;;;;;;;21.54;69.24;97405.66;5088283;28;20191;-70
2022/07/03 02:49:20;;;;;;;9.80;8.80;;;;;;;20.99;71.51;97407.56;5087775;28;20772;-70
2022/07/03 02:52:08;;;;;;;10.10;9.10;;;;;;;20.81;72.38;97413.47;5087981;28;20190;-71
2022/07/03 02:54:47;;;;;;;9.97;8.97;;;;;;;20.79;72.88;97403.03;5087485;28;20250;-70
2022/07/03 02:57:19;;;;;;;10.37;9.37;;;;;;;20.81;72.78;97395.88;5069403;28;20185;-71
2022/07/03 02:59:55;;;;;;;9.90;8.90;;;;;;;20.76;73.10;97400.69;5087723;28;20192;-71
2022/07/03 03:02:21;;;;;;;12.87;9.27;;;;;;;20.85;73.11;97405.22;5087364;28;20260;-71
2022/07/03 03:05:15;;;;;;;10.40;9.30;;;;;;;21.02;72.60;97412.59;5087775;28;20192;-70
2022/07/03 03:08:29;;;;;;;10.17;9.13;;;;;;;21.40;71.41;97400.69;5087323;28;20738;-71
2022/07/03 03:11:06;;;;;;;10.53;9.07;;;;;;;21.69;70.14;97407.00;5067742;28;20202;-71
2022/07/03 03:13:34;;;;;;;9.07;8.17;;;;;;;21.55;70.50;97404.69;5087567;28;20194;-71
2022/07/03 03:16:07;;;;;;;11.57;8.93;;;;;;;21.54;70.95;97410.91;5052284;28;20197;-71
2022/07/03 03:18:37;;;;;;;13.03;8.77;;;;;;;21.53;70.56;97406.63;5087259;28;20186;-71
2022/07/03 03:21:08;;;;;;;13.77;9.93;;;;;;;21.50;70.69;97418.25;5086883;28;20190;-71
2022/07/03 03:23:49;;;;;;;10.23;9.23;;;;;;;21.49;70.95;97413.13;5086964;28;20185;-70
2022/07/03 03:26:24;;;;;;;9.83;8.73;;;;;;;21.42;70.74;97420.69;5087134;28;20192;-70
2022/07/03 03:28:52;;;;;;;10.37;9.17;;;;;;;21.65;69.82;97422.25;5086740;28;20197;-70
2022/07/03 03:31:19;;;;;;;10.90;9.53;;;;;;;21.89;68.99;97424.63;5087160;28;20185;-71
2022/07/03 03:33:49;;;;;;;11.17;9.97;;;;;;;22.21;68.17;97420.09;5086883;28;20200;-70
2022/07/03 03:36:19;;;;;;;12.33;10.10;;;;;;;22.22;67.54;97415.63;5068617;28;20226;-70
2022/07/03 03:38:47;;;;;;;11.60;10.10;;;;;;;22.35;67.71;97416.25;5086926;28;20191;-70
2022/07/03 03:41:15;;;;;;;11.23;9.80;;;;;;;22.42;67.42;97412.94;5086675;28;20183;-72
2022/07/03 03:43:44;;;;;;;11.60;9.13;;;;;;;22.62;66.61;97409.44;5087089;28;20255;-71
2022/07/03 03:46:14;;;;;;;14.70;9.50;;;;;;;22.78;66.13;97424.75;5086692;28;20217;-70
2022/07/03 03:48:42;;;;;;;10.70;9.30;;;;;;;23.03;65.01;97418.09;5086622;28;20187;-70
2022/07/03 03:51:09;;;;;;;12.70;10.13;;;;;;;23.27;64.07;97423.81;5086462;28;20226;-70
2022/07/03 03:53:37;;;;;;;10.10;9.00;;;;;;;23.71;62.01;97425.06;5086566;28;20750;-70
2022/07/03 03:56:07;;;;;;;9.47;8.47;;;;;;;24.02;60.71;97424.75;5086362;28;20227;-70
2022/07/03 03:58:36;;;;;;;11.00;8.63;;;;;;;24.31;60.06;97423.84;5066616;28;20187;-70
2022/07/03 04:01:06;;;;;;;9.50;8.50;;;;;;;24.58;59.12;97422.03;5080575;28;20252;-72
2022/07/03 04:03:34;;;;;;;10.77;8.47;;;;;;;24.81;58.49;97422.50;5075215;28;20227;-71
2022/07/03 04:06:14;;;;;;;10.23;8.20;;;;;;;25.30;57.11;97416.72;5084268;28;20234;-71
2022/07/03 04:08:41;;;;;;;10.63;8.87;;;;;;;25.38;56.66;97405.34;5067431;28;20651;-72
2022/07/03 04:11:08;;;;;;;8.90;8.00;;;;;;;25.46;56.69;97414.22;5066395;28;20192;-71
2022/07/03 04:13:35;;;;;;;11.10;8.30;;;;;;;25.60;56.28;97410.19;5048710;28;20188;-72
2022/07/03 04:16:02;;;;;;;9.73;8.70;;;;;;;25.65;56.85;97411.41;5048416;28;20189;-72
2022/07/03 04:18:29;;;;;;;9.67;8.37;;;;;;;25.80;55.75;97411.69;5072727;28;20212;-71
2022/07/03 04:20:59;;;;;;;9.63;8.47;;;;;;;25.79;55.94;97415.31;5086332;28;20203;-71
2022/07/03 04:23:26;;;;;;;9.33;8.37;;;;;;;25.51;56.35;97411.94;5068342;28;20658;-71
2022/07/03 04:25:53;;;;;;;8.60;7.70;;;;;;;26.05;55.70;97418.81;5068125;28;20848;-71
2022/07/03 04:28:20;;;;;;;12.90;8.80;;;;;;;26.41;54.77;97408.91;5086229;28;20185;-72
2022/07/03 04:30:48;;;;;;;10.03;8.40;;;;;;;26.50;53.80;97415.94;5086458;28;20615;-71
2022/07/03 04:33:18;;;;;;;12.03;8.30;;;;;;;26.51;54.37;97413.13;5086065;28;20184;-70
2022/07/03 04:35:45;;;;;;;9.63;8.63;;;;;;;26.63;53.83;97420.81;5086193;28;20236;-71
2022/07/03 04:38:12;;;;;;;13.13;8.87;;;;;;;25.95;55.92;97419.88;5086110;28;20193;-71
2022/07/03 04:40:39;;;;;;;9.40;8.50;;;;;;;25.53;57.45;97414.47;5086281;28;20185;-71
2022/07/03 04:43:06;;;;;;;10.17;9.17;;;;;;;25.15;58.27;97407.63;5086865;28;20223;-71
2022/07/03 04:45:32;;;;;;;8.67;7.50;;;;;;;25.20;58.72;97415.13;5086541;28;20626;-72
2022/07/03 04:48:00;;;;;;;8.93;7.67;;;;;;;25.93;56.81;97411.25;5086574;28;20185;-71
2022/07/03 04:50:27;;;;;;;14.87;8.87;;;;;;;26.32;55.96;97418.66;5086189;28;20185;-71
2022/07/03 04:52:54;;;;;;;8.70;7.90;;;;;;;26.63;55.32;97418.97;5086243;28;20189;-71
2022/07/03 04:55:20;;;;;;;9.23;8.30;;;;;;;26.75;55.17;97424.88;5086358;28;20192;-72
2022/07/03 04:57:47;;;;;;;9.80;8.17;;;;;;;27.01;54.56;97423.78;5086447;28;20184;-71
2022/07/03 05:00:15;;;;;;;9.03;8.13;;;;;;;27.19;54.05;97418.31;5067875;28;20199;-72
2022/07/03 05:02:42;;;;;;;13.40;9.33;;;;;;;27.30;52.99;97421.50;5086300;28;20228;-71
2022/07/03 05:05:09;;;;;;;9.00;8.20;;;;;;;27.31;54.20;97431.16;5068546;28;20197;-71
2022/07/03 05:07:36;;;;;;;9.10;8.17;;;;;;;27.55;53.55;97419.72;5086578;28;20309;-71
2022/07/03 05:10:03;;;;;;;9.70;8.70;;;;;;;27.89;52.41;97416.88;5090796;28;20231;-71
2022/07/03 05:12:30;;;;;;;9.33;8.20;;;;;;;27.77;52.68;97404.91;5090472;28;20188;-71
2022/07/03 05:14:57;;;;;;;10.13;9.20;;;;;;;27.95;52.53;97416.19;5072432;28;20215;-71
2022/07/03 05:17:24;;;;;;;10.70;8.87;;;;;;;27.84;52.86;97409.38;5090751;28;20195;-71
2022/07/03 05:20:37;;;;;;;11.20;9.93;;;;;;;27.78;52.41;97411.91;5095615;28;20185;-72
2022/07/03 05:22:41;;;;;;;12.03;9.13;;;;;;;27.86;52.11;97414.56;5081672;28;20654;-71
2022/07/03 05:25:08;;;;;;;11.00;9.53;;;;;;;27.78;52.46;97414.56;5071726;28;20196;-72
2022/07/03 05:27:37;;;;;;;9.60;8.60;;;;;;;27.66;52.76;97408.72;5089887;28;20230;-71
2022/07/03 05:30:04;;;;;;;9.30;8.40;;;;;;;27.60;52.64;97412.06;5089378;28;20244;-72
2022/07/03 05:32:31;;;;;;;9.00;8.20;;;;;;;27.86;52.67;97409.22;5089434;28;20632;-71
2022/07/03 05:34:58;;;;;;;9.30;8.40;;;;;;;28.27;51.46;97402.84;5087471;28;20632;-71
2022/07/03 05:37:25;;;;;;;9.33;8.33;;;;;;;28.25;51.26;97412.84;5076171;28;20286;-71
2022/07/03 05:39:52;;;;;;;9.83;8.80;;;;;;;28.57;50.67;97411.94;5089554;28;20184;-72
2022/07/03 05:42:19;;;;;;;9.83;8.77;;;;;;;28.70;50.19;97422.88;5071043;28;20232;-72
2022/07/03 05:44:47;;;;;;;9.77;8.87;;;;;;;28.89;49.57;97420.59;5089790;28;20280;-72
2022/07/03 05:47:14;;;;;;;10.43;9.37;;;;;;;28.39;49.43;97350.84;5070617;28;20200;-71
2022/07/03 05:49:40;;;;;;;10.77;8.60;;;;;;;28.95;49.07;97419.09;5088711;28;20176;-71
2022/07/03 05:52:08;;;;;;;9.53;8.60;;;;;;;28.98;49.23;97414.22;5088694;28;20187;-71
2022/07/03 05:54:35;;;;;;;9.73;8.43;;;;;;;29.05;48.91;97421.53;5070236;28;20224;-72
2022/07/03 05:57:04;;;;;;;10.00;8.63;;;;;;;29.11;48.39;97410.16;5089221;28;20188;-71
2022/07/03 05:59:31;;;;;;;13.70;9.23;;;;;;;29.28;47.90;97422.41;5088474;28;20193;-71
2022/07/03 06:01:59;;;;;;;12.07;9.50;;;;;;;29.22;48.27;97415.13;5053868;28;20224;-71
2022/07/03 06:04:26;;;;;;;10.57;9.10;;;;;;;29.34;48.44;97427.03;5088519;28;20324;-71
2022/07/03 06:06:55;;;;;;;10.87;9.80;;;;;;;29.59;48.77;97425.88;5063742;28;20234;-70
2022/07/03 06:09:23;;;;;;;10.77;9.17;;;;;;;29.71;47.50;97419.09;5073105;28;20621;-72
2022/07/03 06:11:49;;;;;;;10.27;9.17;;;;;;;29.77;47.28;97423.72;5068042;28;20177;-71
2022/07/03 06:14:16;;;;;;;11.00;9.90;;;;;;;29.38;47.80;97429.19;5068559;28;20189;-71
2022/07/03 06:16:43;;;;;;;9.83;8.83;;;;;;;29.58;47.87;97425.03;5067973;28;20189;-70
2022/07/03 06:19:10;;;;;;;11.47;9.70;;;;;;;29.73;47.36;97423.28;5068078;28;20238;-71
2022/07/03 06:21:38;;;;;;;11.83;8.43;;;;;;;29.88;46.65;97415.31;5067331;28;20676;-70
2022/07/03 06:24:05;;;;;;;10.03;8.37;;;;;;;30.05;46.41;97422.13;5049687;28;20658;-71
2022/07/03 06:26:32;;;;;;;9.97;8.97;;;;;;;29.66;47.10;97421.44;5050276;28;20265;-71
2022/07/03 06:28:59;;;;;;;10.43;8.50;;;;;;;29.94;47.20;97422.59;5049213;28;20212;-71
2022/07/03 06:31:27;;;;;;;13.17;8.70;;;;;;;30.05;46.70;97427.47;5049367;28;20700;-71
2022/07/03 06:33:54;;;;;;;12.03;8.43;;;;;;;29.99;44.98;97417.50;5033189;28;20193;-71
2022/07/03 06:36:21;;;;;;;11.30;8.83;;;;;;;29.67;45.68;97417.78;5067389;28;20247;-71
2022/07/03 06:38:48;;;;;;;9.37;8.47;;;;;;;29.89;45.28;97416.94;5066895;28;20199;-71
2022/07/03 06:41:15;;;;;;;8.63;7.63;;;;;;;29.99;45.02;97416.69;5067444;28;20266;-70
2022/07/03 06:43:42;;;;;;;10.90;7.97;;;;;;;30.05;43.68;97419.47;5067360;28;20572;-72
2022/07/03 06:46:09;;;;;;;12.43;8.27;;;;;;;30.13;44.44;97415.91;5067598;28;20693;-71
2022/07/03 06:48:36;;;;;;;28.83;9.73;;;;;;;30.47;43.82;97422.38;5049465;28;20200;-71
2022/07/03 06:51:03;;;;;;;10.27;7.80;;;;;;;30.40;43.28;97421.44;5066865;28;20189;-72
2022/07/03 06:53:30;;;;;;;9.27;7.33;;;;;;;30.62;42.00;97416.19;5067351;28;20193;-72
2022/07/03 06:55:57;;;;;;;9.03;7.77;;;;;;;30.59;42.70;97411.19;5066953;28;20732;-72
2022/07/03 06:58:24;;;;;;;8.10;7.30;;;;;;;30.49;42.84;97401.63;5049213;28;20197;-72
2022/07/03 07:00:51;;;;;;;7.60;6.80;;;;;;;30.65;42.65;97410.47;5067197;28;20282;-72
2022/07/03 07:03:19;;;;;;;9.73;7.30;;;;;;;29.94;43.21;97409.22;5067071;28;20224;-71
2022/07/03 07:05:46;;;;;;;9.53;7.47;;;;;;;29.96;43.49;97417.06;5067149;28;20196;-72
2022/07/03 07:08:13;;;;;;;9.10;7.00;;;;;;;30.18;43.07;97411.66;5073376;28;20192;-72
2022/07/03 07:10:40;;;;;;;9.73;7.13;;;;;;;30.42;42.60;97405.22;5071929;28;20675;-72
2022/07/03 07:13:08;;;;;;;8.67;7.33;;;;;;;30.41;42.05;97401.75;5067460;28;20239;-72
2022/07/03 07:15:35;;;;;;;8.63;6.67;;;;;;;30.53;41.73;97405.59;5067030;28;20318;-72
2022/07/03 07:18:02;;;;;;;7.23;6.53;;;;;;;30.54;41.83;97407.25;5049122;28;20719;-72
2022/07/03 07:20:29;;;;;;;9.27;7.87;;;;;;;30.62;42.44;97403.66;5066409;28;20258;-71
2022/07/03 07:22:55;;;;;;;7.23;6.50;;;;;;;30.71;41.74;97412.41;5066581;28;20220;-71
2022/07/03 07:25:22;;;;;;;8.47;7.67;;;;;;;30.04;43.62;97404.44;5066450;28;20226;-70
2022/07/03 07:27:49;;;;;;;7.67;6.93;;;;;;;30.07;43.50;97404.06;5066989;28;20609;-71
2022/07/03 07:30:16;;;;;;;7.60;6.77;;;;;;;30.13;42.36;97407.88;5066008;28;20220;-73
2022/07/03 07:32:43;;;;;;;8.20;5.77;;;;;;;30.39;40.86;97417.13;5066498;28;20180;-70
2022/07/03 07:35:10;;;;;;;7.73;6.03;;;;;;;30.23;39.96;97403.09;5048868;28;20192;-73
2022/07/03 07:37:37;;;;;;;7.30;5.13;;;;;;;30.48;37.94;97413.34;5066314;28;20608;-73
2022/07/03 07:40:05;;;;;;;8.17;5.60;;;;;;;30.56;38.97;97403.56;5066341;28;20197;-72
2022/07/03 07:42:32;;;;;;;6.63;5.70;;;;;;;30.93;38.02;97408.81;5048471;28;20201;-72
2022/07/03 07:44:59;;;;;;;7.30;6.60;;;;;;;31.01;38.83;97417.56;5066825;28;20182;-70
2022/07/03 07:47:26;;;;;;;7.97;6.27;;;;;;;30.77;39.54;97409.81;5066406;28;20263;-71
2022/07/03 07:49:53;;;;;;;7.77;6.00;;;;;;;30.96;39.03;97411.09;5066677;28;20242;-70
2022/07/03 07:52:20;;;;;;;8.17;5.90;;;;;;;31.25;37.84;97408.31;5066204;28;20215;-72
2022/07/03 07:54:47;;;;;;;7.30;5.37;;;;;;;31.38;35.70;97410.31;5048593;28;20573;-71
2022/07/03 07:57:14;;;;;;;7.93;5.07;;;;;;;31.39;35.02;97412.81;5066189;28;20223;-71
2022/07/03 07:59:41;;;;;;;7.00;4.27;;;;;;;31.47;33.01;97404.66;5031542;28;20653;-71
2022/07/03 08:07:43;;;;;;;7.20;4.37;;;;;;;30.90;34.84;97417.19;5066203;28;20586;-72
2022/07/03 08:10:10;;;;;;;5.37;4.83;;;;;;;30.89;33.96;97407.53;5066214;28;20185;-73
2022/07/03 08:12:47;;;;;;;8.93;4.30;;;;;;;30.79;34.94;97420.34;5049920;28;20185;-71
2022/07/03 08:15:14;;;;;;;4.83;4.30;;;;;;;30.88;35.01;97416.56;5066030;28;20195;-71
2022/07/03 08:17:41;;;;;;;7.27;4.30;;;;;;;31.19;34.26;97411.78;5066107;28;20240;-72
2022/07/03 08:20:09;;;;;;;4.97;4.47;;;;;;;31.41;34.18;97409.97;5031503;28;20683;-72
2022/07/03 08:22:36;;;;;;;4.30;3.90;;;;;;;31.55;33.41;97396.50;5047944;28;20185;-72
2022/07/03 08:25:03;;;;;;;4.20;3.80;;;;;;;31.65;33.40;97421.13;5065839;28;20239;-72
2022/07/03 08:27:30;;;;;;;5.83;4.03;;;;;;;31.67;33.98;97412.91;5047617;28;20247;-72
2022/07/03 08:29:57;;;;;;;5.30;4.17;;;;;;;31.77;34.12;97416.06;5064897;28;20193;-70
2022/07/03 08:32:24;;;;;;;4.37;3.83;;;;;;;31.78;33.47;97409.72;5065328;28;20267;-71
2022/07/03 08:34:51;;;;;;;5.80;3.77;;;;;;;31.74;33.81;97411.91;5065680;28;20186;-72
2022/07/03 08:37:18;;;;;;;6.67;4.13;;;;;;;32.04;32.86;97423.34;5065806;28;20224;-71
2022/07/03 08:39:45;;;;;;;8.15;4.30;;;;;;;31.78;33.58;97420.44;5066043;28;20220;-71
2022/07/03 08:42:12;;;;;;;7.03;6.43;;;;;;;31.92;33.22;97424.88;5048359;28;20227;-71
2022/07/03 08:44:43;;;;;;;9.98;5.00;;;;;;;31.89;33.84;97420.72;5035005;28;20250;-70
2022/07/03 08:47:12;;;;;;;10.03;4.77;;;;;;;31.02;35.00;97423.72;5069658;28;20246;-71
2022/07/03 08:49:41;;;;;;;5.67;4.37;;;;;;;31.01;34.85;97419.41;5069928;28;20197;-72
2022/07/03 08:52:10;;;;;;;8.10;5.70;;;;;;;31.21;35.43;97421.28;5051417;28;20189;-71
2022/07/03 08:54:37;;;;;;;5.23;4.30;;;;;;;30.86;35.52;97413.22;5069527;28;20232;-71
2022/07/03 08:57:05;;;;;;;8.23;4.50;;;;;;;30.86;36.21;97426.63;5051205;28;20204;-70
2022/07/03 08:59:37;;;;;;;5.40;4.20;;;;;;;30.85;36.34;97419.63;5050917;28;20186;-70
2022/07/03 09:02:05;;;;;;;5.33;4.63;;;;;;;30.75;36.94;97413.69;5068739;28;20651;-72
2022/07/03 09:04:33;;;;;;;11.67;5.67;;;;;;;30.99;36.71;97421.44;5050899;28;20224;-71
2022/07/03 09:07:01;;;;;;;6.90;5.37;;;;;;;31.10;36.74;97412.91;5069400;28;20189;-70
2022/07/03 09:09:28;;;;;;;7.90;5.70;;;;;;;31.24;36.96;97420.88;5051321;28;20194;-70
2022/07/03 09:11:56;;;;;;;9.33;5.03;;;;;;;31.19;37.47;97422.47;5050787;28;20205;-70
2022/07/03 09:14:27;;;;;;;9.53;5.07;;;;;;;31.19;37.07;97420.63;5049653;28;20189;-71
2022/07/03 09:16:56;;;;;;;8.93;5.20;;;;;;;31.33;37.25;97418.91;5033268;28;20211;-71
2022/07/03 09:19:41;;;;;;;8.70;4.73;;;;;;;31.47;36.14;97415.38;5018693;28;20284;-71
2022/07/03 09:22:29;;;;;;;6.53;5.77;;;;;;;31.49;36.56;97410.66;5048165;28;20185;-72
2022/07/03 09:25:11;;;;;;;5.03;4.63;;;;;;;31.62;37.36;97420.66;5051540;28;20247;-71
2022/07/03 09:27:49;;;;;;;6.13;5.53;;;;;;;31.55;36.94;97409.88;5068843;28;20181;-70
2022/07/03 09:30:17;;;;;;;6.57;5.50;;;;;;;31.98;35.79;97416.88;5068674;28;20657;-71
2022/07/03 09:32:46;;;;;;;6.00;4.80;;;;;;;31.76;36.47;97392.97;5050904;28;20203;-71
2022/07/03 09:35:21;;;;;;;6.13;5.53;;;;;;;31.59;36.28;97413.03;5068425;28;20200;-70
2022/07/03 09:38:08;;;;;;;9.50;8.15;;;;;;;31.48;36.43;97414.38;5068904;28;20231;-71
2022/07/03 09:40:56;;;;;;;6.82;6.13;;;;;;;31.51;37.04;97413.16;5074317;28;20246;-70
2022/07/03 09:43:28;;;;;;;8.07;6.10;;;;;;;31.47;36.82;97399.31;5054207;28;20322;-71
2022/07/03 09:45:57;;;;;;;7.37;5.47;;;;;;;31.59;37.12;97402.31;5070718;28;20251;-71
2022/07/03 09:48:35;;;;;;;6.77;5.47;;;;;;;31.72;35.78;97392.53;5050863;28;20239;-70
2022/07/03 09:51:26;;;;;;;7.73;5.10;;;;;;;32.01;35.39;97400.44;5068449;28;20193;-71
2022/07/03 09:54:01;;;;;;;8.30;6.10;;;;;;;32.02;35.76;97391.38;5033414;28;20268;-70
2022/07/03 09:56:34;;;;;;;7.82;5.93;;;;;;;31.93;36.27;97395.22;5050250;28;20185;-71
2022/07/03 09:59:14;;;;;;;10.00;6.47;;;;;;;31.89;36.19;97401.13;5068898;28;20196;-71
2022/07/03 10:01:46;;;;;;;9.90;5.77;;;;;;;31.38;36.73;97386.22;5067475;28;20713;-70
2022/07/03 10:04:19;;;;;;;8.80;5.60;;;;;;;30.89;37.61;97375.41;5068238;28;20224;-71
2022/07/03 10:06:55;;;;;;;9.17;5.50;;;;;;;30.76;37.05;97384.09;5050303;28;20220;-70
2022/07/03 10:09:30;;;;;;;7.77;5.80;;;;;;;30.77;37.54;97385.72;5067980;28;20219;-70
2022/07/03 10:11:59;;;;;;;6.30;4.50;;;;;;;31.04;36.64;97377.03;5068623;28;20189;-70
2022/07/03 10:14:29;;;;;;;7.07;5.37;;;;;;;31.30;36.97;97390.66;5081956;28;20596;-71
2022/07/03 10:16:57;;;;;;;7.00;4.83;;;;;;;31.10;36.53;97380.78;5087872;28;20664;-70
2022/07/03 10:19:29;;;;;;;5.93;5.07;;;;;;;31.08;37.11;97372.09;5088027;28;20193;-70
2022/07/03 10:22:01;;;;;;;6.20;5.27;;;;;;;31.34;37.43;97361.69;5087783;28;20216;-71
2022/07/03 10:24:30;;;;;;;7.53;6.17;;;;;;;31.53;36.45;97371.75;5088108;28;20288;-71
2022/07/03 10:26:58;;;;;;;8.37;5.80;;;;;;;31.64;36.25;97368.56;5074852;28;20201;-71
2022/07/03 10:29:28;;;;;;;6.23;5.40;;;;;;;31.86;36.16;97366.69;5083760;28;20214;-71
2022/07/03 10:31:57;;;;;;;9.40;5.10;;;;;;;31.55;35.65;97364.34;5069805;28;20262;-71
2022/07/03 10:34:26;;;;;;;6.15;4.82;;;;;;;31.99;34.71;97359.59;5087626;28;20185;-71
2022/07/03 10:37:00;;;;;;;8.73;6.03;;;;;;;32.13;34.80;97357.00;5081342;28;20228;-71
2022/07/03 10:46:13;;;;;;;5.22;4.72;;;;;;;32.70;33.78;97344.13;5065178;28;20197;-71
2022/07/03 10:49:10;;;;;;;6.78;5.18;;;;;;;32.88;33.78;97333.63;5066686;28;20477;-71
2022/07/03 10:51:49;;;;;;;7.70;5.75;;;;;;;32.78;34.08;97339.41;5065669;28;20567;-71
2022/07/03 10:54:22;;;;;;;7.05;6.18;;;;;;;32.53;34.90;97345.47;5065481;28;20196;-71
2022/07/03 10:56:57;;;;;;;5.53;5.00;;;;;;;31.92;35.42;97355.19;5064545;28;20665;-71
2022/07/03 10:59:37;;;;;;;6.75;5.28;;;;;;;31.71;36.06;97345.34;5067718;28;20196;-73
2022/07/03 11:02:40;;;;;;;5.85;4.78;;;;;;;31.84;36.04;97342.75;5067298;28;20192;-72
2022/07/03 11:05:26;;;;;;;5.57;4.90;;;;;;;31.36;36.57;97335.56;5066544;28;20311;-70
2022/07/03 11:07:53;;;;;;;5.68;5.18;;;;;;;31.30;36.73;97339.00;5067330;28;20335;-74
2022/07/03 11:10:20;;;;;;;8.95;5.32;;;;;;;31.45;36.06;97337.09;5066855;28;20276;-71
2022/07/03 11:13:07;;;;;;;5.75;5.05;;;;;;;31.31;36.60;97329.94;5067195;28;20189;-71
2022/07/03 11:15:37;;;;;;;6.00;5.23;;;;;;;31.22;36.81;97329.22;5066941;28;20741;-71
2022/07/03 11:18:26;;;;;;;7.27;5.00;;;;;;;31.31;36.50;97330.75;5074193;28;20196;-71
2022/07/03 11:20:53;;;;;;;6.10;5.60;;;;;;;31.40;35.95;97323.47;5067135;28;20204;-71
2022/07/03 11:23:26;;;;;;;6.10;5.50;;;;;;;31.18;36.76;97325.28;5028941;28;20685;-71
2022/07/03 11:25:55;;;;;;;6.47;5.80;;;;;;;31.26;36.13;97329.69;5047783;28;20555;-71
2022/07/03 11:28:31;;;;;;;7.07;5.20;;;;;;;31.21;36.60;97314.22;5028718;28;20198;-71
2022/07/03 11:31:26;;;;;;;5.60;5.10;;;;;;;31.37;36.54;97320.31;5029275;28;20190;-71
2022/07/03 11:33:54;;;;;;;9.50;6.27;;;;;;;31.82;36.64;97312.66;5027456;28;20300;-71
2022/07/03 11:36:26;;;;;;;5.97;5.35;;;;;;;32.34;36.22;97311.31;5047107;28;20222;-70
2022/07/03 11:39:00;;;;;;;5.97;5.10;;;;;;;32.68;35.18;97305.94;5029338;28;20619;-71
2022/07/03 11:41:40;;;;;;;8.15;6.13;;;;;;;32.97;34.67;97291.34;5070941;28;20304;-71
2022/07/03 11:44:09;;;;;;;7.22;6.03;;;;;;;33.03;35.26;97295.91;5088672;28;20727;-71
2022/07/03 11:46:38;;;;;;;7.18;5.30;;;;;;;32.84;35.59;97287.59;5092978;28;20189;-72
2022/07/03 11:49:13;;;;;;;7.60;5.85;;;;;;;32.96;34.62;97292.34;5089958;28;20576;-71
2022/07/03 11:51:42;;;;;;;6.93;5.68;;;;;;;33.05;34.99;97288.50;5083821;28;20218;-71
2022/07/03 11:54:09;;;;;;;6.68;5.30;;;;;;;33.01;35.32;97287.25;5072807;28;20281;-72
2022/07/03 11:56:38;;;;;;;5.60;5.10;;;;;;;32.70;35.48;97291.28;5067169;28;20194;-72
2022/07/03 11:59:06;;;;;;;7.68;5.53;;;;;;;32.68;35.34;97287.97;5067937;28;20605;-71
2022/07/03 12:01:37;;;;;;;5.97;5.43;;;;;;;32.63;35.36;97289.59;5067805;28;20268;-71
2022/07/03 12:04:16;;;;;;;5.60;5.07;;;;;;;32.67;35.78;97278.25;5067371;28;20656;-71
2022/07/03 12:06:52;;;;;;;8.25;5.93;;;;;;;32.71;35.73;97276.00;5065385;28;20185;-71